sensor_id;sensor_type;location;lat;lon;timestamp;P1;durP1;ratioP1;P2;durP2;ratioP2
13234;SDS011;6683;48.506;9.050;2023-02-28T14:42:34;10.57;;;8.07;;
13234;SDS011;6683;48.506;9.050;2023-02-28T14:45:41;10.13;;;7.77;;
13234;SDS011;6683;48.506;9.050;2023-02-28T14:48:44;8.53;;;7.40;;
13234;SDS011;6683;48.506;9.050;2023-02-28T14:51:48;11.33;;;7.60;;
13234;SDS011;6683;48.506;9.050;2023-02-28T14:55:03;7.80;;;7.00;;
13234;SDS011;6683;48.506;9.050;2023-02-28T14:58:20;7.90;;;6.63;;
13234;SDS011;6683;48.506;9.050;2023-02-28T15:01:26;10.27;;;7.27;;
13234;SDS011;6683;48.506;9.050;2023-02-28T15:04:28;8.23;;;7.13;;
13234;SDS011;6683;48.506;9.050;2023-02-28T15:07:33;9.17;;;6.87;;
13234;SDS011;6683;48.506;9.050;2023-02-28T15:10:35;10.33;;;7.03;;
13234;SDS011;6683;48.506;9.050;2023-02-28T15:13:43;8.03;;;7.00;;
13234;SDS011;6683;48.506;9.050;2023-02-28T15:16:50;8.37;;;7.17;;
13234;SDS011;6683;48.506;9.050;2023-02-28T15:20:00;11.73;;;7.13;;
13234;SDS011;6683;48.506;9.050;2023-02-28T15:23:02;7.07;;;6.37;;
13234;SDS011;6683;48.506;9.050;2023-02-28T15:26:05;8.80;;;7.00;;
13234;SDS011;6683;48.506;9.050;2023-02-28T15:29:11;7.57;;;6.77;;
13234;SDS011;6683;48.506;9.050;2023-02-28T15:32:24;7.37;;;6.43;;
13234;SDS011;6683;48.506;9.050;2023-02-28T15:35:31;8.00;;;6.37;;
13234;SDS011;6683;48.506;9.050;2023-02-28T15:38:35;7.03;;;6.17;;
13234;SDS011;6683;48.506;9.050;2023-02-28T15:41:38;7.07;;;5.77;;
13234;SDS011;6683;48.506;9.050;2023-02-28T15:44:42;7.20;;;6.50;;
13234;SDS011;6683;48.506;9.050;2023-02-28T15:47:44;6.87;;;5.77;;
13234;SDS011;6683;48.506;9.050;2023-02-28T15:50:48;7.30;;;6.00;;
13234;SDS011;6683;48.506;9.050;2023-02-28T15:53:54;7.00;;;5.83;;
13234;SDS011;6683;48.506;9.050;2023-02-28T15:57:01;7.90;;;6.83;;
13234;SDS011;6683;48.506;9.050;2023-02-28T16:00:12;6.20;;;5.60;;
13234;SDS011;6683;48.506;9.050;2023-02-28T16:03:24;7.17;;;5.93;;
13234;SDS011;6683;48.506;9.050;2023-02-28T16:06:34;7.87;;;6.07;;
13234;SDS011;6683;48.506;9.050;2023-02-28T16:09:39;9.47;;;6.40;;
13234;SDS011;6683;48.506;9.050;2023-02-28T16:12:42;7.43;;;6.33;;
13234;SDS011;6683;48.506;9.050;2023-02-28T16:15:47;6.77;;;6.03;;
13234;SDS011;6683;48.506;9.050;2023-02-28T16:18:51;8.73;;;6.70;;
13234;SDS011;6683;48.506;9.050;2023-02-28T16:21:54;7.57;;;6.43;;
13234;SDS011;6683;48.506;9.050;2023-02-28T16:24:56;8.37;;;6.30;;
13234;SDS011;6683;48.506;9.050;2023-02-28T16:27:59;7.27;;;5.97;;
13234;SDS011;6683;48.506;9.050;2023-02-28T16:31:04;7.57;;;6.60;;
13234;SDS011;6683;48.506;9.050;2023-02-28T16:34:10;8.87;;;6.60;;
13234;SDS011;6683;48.506;9.050;2023-02-28T16:37:13;7.43;;;6.60;;
13234;SDS011;6683;48.506;9.050;2023-02-28T16:40:18;9.30;;;6.20;;
13234;SDS011;6683;48.506;9.050;2023-02-28T16:43:23;7.07;;;6.03;;
13234;SDS011;6683;48.506;9.050;2023-02-28T16:46:30;7.57;;;6.73;;
13234;SDS011;6683;48.506;9.050;2023-02-28T16:49:35;7.57;;;6.23;;
13234;SDS011;6683;48.506;9.050;2023-02-28T16:52:38;7.53;;;6.30;;
13234;SDS011;6683;48.506;9.050;2023-02-28T16:55:40;6.90;;;6.20;;
13234;SDS011;6683;48.506;9.050;2023-02-28T16:58:43;7.70;;;6.00;;
13234;SDS011;6683;48.506;9.050;2023-02-28T17:01:47;6.80;;;5.73;;
13234;SDS011;6683;48.506;9.050;2023-02-28T17:04:50;7.30;;;6.47;;
13234;SDS011;6683;48.506;9.050;2023-02-28T17:07:53;7.60;;;5.97;;
13234;SDS011;6683;48.506;9.050;2023-02-28T17:10:55;7.47;;;6.43;;
13234;SDS011;6683;48.506;9.050;2023-02-28T17:13:58;6.97;;;6.17;;
13234;SDS011;6683;48.506;9.050;2023-02-28T17:17:02;7.43;;;5.90;;
13234;SDS011;6683;48.506;9.050;2023-02-28T17:20:06;9.20;;;6.60;;
13234;SDS011;6683;48.506;9.050;2023-02-28T17:23:13;10.17;;;7.33;;
13234;SDS011;6683;48.506;9.050;2023-02-28T17:26:16;8.10;;;6.90;;
13234;SDS011;6683;48.506;9.050;2023-02-28T17:29:21;9.60;;;7.87;;
13234;SDS011;6683;48.506;9.050;2023-02-28T17:32:25;9.23;;;6.90;;
13234;SDS011;6683;48.506;9.050;2023-02-28T17:35:28;9.80;;;7.27;;
13234;SDS011;6683;48.506;9.050;2023-02-28T17:38:31;9.17;;;7.10;;
13234;SDS011;6683;48.506;9.050;2023-02-28T17:41:33;7.70;;;6.90;;
13234;SDS011;6683;48.506;9.050;2023-02-28T17:44:35;7.70;;;6.83;;
13234;SDS011;6683;48.506;9.050;2023-02-28T17:47:40;9.57;;;7.30;;
13234;SDS011;6683;48.506;9.050;2023-02-28T17:50:45;10.17;;;7.73;;
13234;SDS011;6683;48.506;9.050;2023-02-28T17:53:47;8.63;;;7.73;;
13234;SDS011;6683;48.506;9.050;2023-02-28T17:56:49;8.73;;;6.87;;
13234;SDS011;6683;48.506;9.050;2023-02-28T17:59:52;9.00;;;7.10;;
13234;SDS011;6683;48.506;9.050;2023-02-28T18:02:56;8.10;;;7.27;;
13234;SDS011;6683;48.506;9.050;2023-02-28T18:05:58;11.77;;;8.63;;
13234;SDS011;6683;48.506;9.050;2023-02-28T18:09:02;10.13;;;8.13;;
13234;SDS011;6683;48.506;9.050;2023-02-28T18:12:04;11.50;;;8.53;;
13234;SDS011;6683;48.506;9.050;2023-02-28T18:15:07;10.53;;;8.27;;
13234;SDS011;6683;48.506;9.050;2023-02-28T18:18:12;12.50;;;8.50;;
13234;SDS011;6683;48.506;9.050;2023-02-28T18:21:16;11.90;;;8.97;;
13234;SDS011;6683;48.506;9.050;2023-02-28T18:24:19;10.40;;;8.80;;
13234;SDS011;6683;48.506;9.050;2023-02-28T18:27:23;13.43;;;9.40;;
13234;SDS011;6683;48.506;9.050;2023-02-28T18:30:26;12.13;;;9.10;;
13234;SDS011;6683;48.506;9.050;2023-02-28T18:33:32;10.17;;;8.63;;
13234;SDS011;6683;48.506;9.050;2023-02-28T18:36:34;11.03;;;8.57;;
13234;SDS011;6683;48.506;9.050;2023-02-28T18:39:37;10.60;;;8.57;;
13234;SDS011;6683;48.506;9.050;2023-02-28T18:42:40;9.70;;;7.30;;
13234;SDS011;6683;48.506;9.050;2023-02-28T18:45:42;10.10;;;8.13;;
13234;SDS011;6683;48.506;9.050;2023-02-28T18:48:45;9.00;;;7.10;;
13234;SDS011;6683;48.506;9.050;2023-02-28T18:51:48;9.77;;;7.23;;
13234;SDS011;6683;48.506;9.050;2023-02-28T18:54:51;8.37;;;7.40;;
13234;SDS011;6683;48.506;9.050;2023-02-28T18:57:54;10.67;;;7.63;;
13234;SDS011;6683;48.506;9.050;2023-02-28T19:00:56;10.57;;;8.27;;
13234;SDS011;6683;48.506;9.050;2023-02-28T19:04:00;9.77;;;8.33;;
13234;SDS011;6683;48.506;9.050;2023-02-28T19:07:18;10.27;;;8.13;;
13234;SDS011;6683;48.506;9.050;2023-02-28T19:10:21;9.77;;;7.63;;
13234;SDS011;6683;48.506;9.050;2023-02-28T19:17:54;14.27;;;8.53;;
13234;SDS011;6683;48.506;9.050;2023-02-28T19:20:59;13.37;;;8.50;;
13234;SDS011;6683;48.506;9.050;2023-02-28T19:24:02;13.80;;;8.60;;
13234;SDS011;6683;48.506;9.050;2023-02-28T19:27:05;13.77;;;9.50;;
13234;SDS011;6683;48.506;9.050;2023-02-28T19:30:08;12.83;;;8.43;;
13234;SDS011;6683;48.506;9.050;2023-02-28T19:33:49;11.00;;;7.77;;
13234;SDS011;6683;48.506;9.050;2023-02-28T19:40:37;11.07;;;8.60;;
13234;SDS011;6683;48.506;9.050;2023-02-28T19:43:44;11.07;;;8.97;;
13234;SDS011;6683;48.506;9.050;2023-02-28T19:46:47;11.43;;;9.33;;
13234;SDS011;6683;48.506;9.050;2023-02-28T19:49:57;11.37;;;9.23;;
13234;SDS011;6683;48.506;9.050;2023-02-28T19:53:02;14.33;;;11.03;;
13234;SDS011;6683;48.506;9.050;2023-02-28T19:56:05;15.37;;;11.07;;
13234;SDS011;6683;48.506;9.050;2023-02-28T19:59:11;12.57;;;8.87;;
13234;SDS011;6683;48.506;9.050;2023-02-28T20:02:19;13.83;;;9.57;;
13234;SDS011;6683;48.506;9.050;2023-02-28T20:05:25;12.37;;;9.43;;
13234;SDS011;6683;48.506;9.050;2023-02-28T20:08:29;15.23;;;10.70;;
13234;SDS011;6683;48.506;9.050;2023-02-28T20:11:32;18.70;;;11.57;;
13234;SDS011;6683;48.506;9.050;2023-02-28T20:14:34;18.73;;;12.43;;
13234;SDS011;6683;48.506;9.050;2023-02-28T20:17:37;13.50;;;10.17;;
13234;SDS011;6683;48.506;9.050;2023-02-28T20:20:41;12.70;;;9.37;;
13234;SDS011;6683;48.506;9.050;2023-02-28T20:23:45;14.00;;;10.57;;
13234;SDS011;6683;48.506;9.050;2023-02-28T20:26:48;13.47;;;9.90;;
13234;SDS011;6683;48.506;9.050;2023-02-28T20:29:51;15.80;;;10.80;;
13234;SDS011;6683;48.506;9.050;2023-02-28T20:32:53;14.93;;;9.70;;
13234;SDS011;6683;48.506;9.050;2023-02-28T20:35:58;11.70;;;9.23;;
13234;SDS011;6683;48.506;9.050;2023-02-28T20:39:03;11.53;;;9.20;;
13234;SDS011;6683;48.506;9.050;2023-02-28T20:42:05;11.97;;;8.80;;
13234;SDS011;6683;48.506;9.050;2023-02-28T20:45:08;10.20;;;8.20;;
13234;SDS011;6683;48.506;9.050;2023-02-28T20:48:11;10.67;;;8.10;;
13234;SDS011;6683;48.506;9.050;2023-02-28T20:51:13;13.23;;;8.33;;
13234;SDS011;6683;48.506;9.050;2023-02-28T20:54:17;9.40;;;7.63;;
13234;SDS011;6683;48.506;9.050;2023-02-28T20:57:20;10.93;;;8.30;;
13234;SDS011;6683;48.506;9.050;2023-02-28T21:00:23;10.80;;;8.77;;
13234;SDS011;6683;48.506;9.050;2023-02-28T21:03:25;11.63;;;7.93;;
13234;SDS011;6683;48.506;9.050;2023-02-28T21:06:29;12.27;;;8.00;;
13234;SDS011;6683;48.506;9.050;2023-02-28T21:09:37;10.83;;;8.20;;
13234;SDS011;6683;48.506;9.050;2023-02-28T21:12:40;10.53;;;8.00;;
13234;SDS011;6683;48.506;9.050;2023-02-28T21:19:14;11.77;;;8.50;;
13234;SDS011;6683;48.506;9.050;2023-02-28T21:22:17;12.87;;;8.97;;
13234;SDS011;6683;48.506;9.050;2023-02-28T21:25:21;11.03;;;8.93;;
13234;SDS011;6683;48.506;9.050;2023-02-28T21:28:23;10.03;;;8.20;;
13234;SDS011;6683;48.506;9.050;2023-02-28T21:31:27;10.97;;;8.17;;
13234;SDS011;6683;48.506;9.050;2023-02-28T21:34:32;12.10;;;8.77;;
13234;SDS011;6683;48.506;9.050;2023-02-28T21:37:35;9.67;;;7.60;;
13234;SDS011;6683;48.506;9.050;2023-02-28T21:40:40;9.97;;;8.37;;
13234;SDS011;6683;48.506;9.050;2023-02-28T21:43:43;11.37;;;8.00;;
13234;SDS011;6683;48.506;9.050;2023-02-28T21:46:47;12.73;;;8.40;;
13234;SDS011;6683;48.506;9.050;2023-02-28T21:49:53;11.33;;;8.40;;
13234;SDS011;6683;48.506;9.050;2023-02-28T21:52:56;11.60;;;8.13;;
13234;SDS011;6683;48.506;9.050;2023-02-28T21:56:00;11.97;;;8.30;;
13234;SDS011;6683;48.506;9.050;2023-02-28T21:59:04;11.87;;;8.50;;
13234;SDS011;6683;48.506;9.050;2023-02-28T22:02:08;10.30;;;7.63;;
13234;SDS011;6683;48.506;9.050;2023-02-28T22:05:11;10.03;;;7.83;;
13234;SDS011;6683;48.506;9.050;2023-02-28T22:08:13;10.83;;;7.80;;
13234;SDS011;6683;48.506;9.050;2023-02-28T22:11:18;11.67;;;8.57;;
13234;SDS011;6683;48.506;9.050;2023-02-28T22:14:21;10.97;;;8.00;;
13234;SDS011;6683;48.506;9.050;2023-02-28T22:17:23;11.03;;;8.47;;
13234;SDS011;6683;48.506;9.050;2023-02-28T22:20:26;9.97;;;8.13;;
13234;SDS011;6683;48.506;9.050;2023-02-28T22:23:29;11.87;;;8.03;;
13234;SDS011;6683;48.506;9.050;2023-02-28T22:26:33;12.40;;;8.27;;
13234;SDS011;6683;48.506;9.050;2023-02-28T22:29:36;10.97;;;7.90;;
13234;SDS011;6683;48.506;9.050;2023-02-28T22:32:38;12.90;;;9.00;;
13234;SDS011;6683;48.506;9.050;2023-02-28T22:35:41;11.00;;;8.17;;
13234;SDS011;6683;48.506;9.050;2023-02-28T22:38:43;11.60;;;8.30;;
13234;SDS011;6683;48.506;9.050;2023-02-28T22:41:49;13.93;;;9.23;;
13234;SDS011;6683;48.506;9.050;2023-02-28T22:44:54;11.97;;;8.90;;
13234;SDS011;6683;48.506;9.050;2023-02-28T22:47:57;12.23;;;8.87;;
13234;SDS011;6683;48.506;9.050;2023-02-28T22:51:00;11.80;;;9.43;;
13234;SDS011;6683;48.506;9.050;2023-02-28T22:54:04;11.93;;;8.93;;
13234;SDS011;6683;48.506;9.050;2023-02-28T22:57:08;13.53;;;9.03;;
13234;SDS011;6683;48.506;9.050;2023-02-28T23:00:11;12.60;;;8.43;;
13234;SDS011;6683;48.506;9.050;2023-02-28T23:03:14;13.13;;;9.07;;
13234;SDS011;6683;48.506;9.050;2023-02-28T23:06:17;13.03;;;9.17;;
13234;SDS011;6683;48.506;9.050;2023-02-28T23:09:22;12.20;;;8.37;;
13234;SDS011;6683;48.506;9.050;2023-02-28T23:12:26;13.90;;;8.90;;
13234;SDS011;6683;48.506;9.050;2023-02-28T23:15:29;11.30;;;8.33;;
13234;SDS011;6683;48.506;9.050;2023-02-28T23:18:31;13.93;;;8.93;;
13234;SDS011;6683;48.506;9.050;2023-02-28T23:21:34;11.70;;;8.50;;
13234;SDS011;6683;48.506;9.050;2023-02-28T23:24:37;12.53;;;9.20;;
13234;SDS011;6683;48.506;9.050;2023-02-28T23:27:41;12.93;;;9.20;;
13234;SDS011;6683;48.506;9.050;2023-02-28T23:30:43;11.57;;;9.37;;
13234;SDS011;6683;48.506;9.050;2023-02-28T23:33:46;13.17;;;8.63;;
13234;SDS011;6683;48.506;9.050;2023-02-28T23:36:48;12.83;;;8.90;;
13234;SDS011;6683;48.506;9.050;2023-02-28T23:39:51;12.07;;;9.30;;
13234;SDS011;6683;48.506;9.050;2023-02-28T23:42:55;12.63;;;8.93;;
13234;SDS011;6683;48.506;9.050;2023-02-28T23:45:58;12.97;;;8.80;;
13234;SDS011;6683;48.506;9.050;2023-02-28T23:49:00;13.00;;;9.33;;
13234;SDS011;6683;48.506;9.050;2023-02-28T23:52:03;12.30;;;8.77;;
13234;SDS011;6683;48.506;9.050;2023-02-28T23:55:06;14.10;;;9.17;;
13234;SDS011;6683;48.506;9.050;2023-02-28T23:58:10;10.97;;;8.73;;
